sensor_id;sensor_type;location;lat;lon;timestamp;pressure;altitude;pressure_sealevel;temperature;humidity
51249;BME280;39642;47.556;18.728;2022-12-11T00:01:15;97564.72;;;21.10;34.66
51249;BME280;39642;47.556;18.728;2022-12-11T00:03:42;97558.59;;;21.10;34.50
51249;BME280;39642;47.556;18.728;2022-12-11T00:06:10;97558.59;;;21.10;34.52
51249;BME280;39642;47.556;18.728;2022-12-11T00:08:36;97559.41;;;21.10;34.78
51249;BME280;39642;47.556;18.728;2022-12-11T00:11:03;97551.47;;;21.10;34.78
51249;BME280;39642;47.556;18.728;2022-12-11T00:13:29;97550.66;;;21.10;34.68
51249;BME280;39642;47.556;18.728;2022-12-11T00:15:57;97548.00;;;21.10;34.59
51249;BME280;39642;47.556;18.728;2022-12-11T00:18:23;97543.53;;;21.10;34.82
51249;BME280;39642;47.556;18.728;2022-12-11T00:20:49;97542.72;;;21.10;34.62
51249;BME280;39642;47.556;18.728;2022-12-11T00:23:15;97531.97;;;21.11;34.60
51249;BME280;39642;47.556;18.728;2022-12-11T00:25:43;97533.78;;;21.11;34.72
51249;BME280;39642;47.556;18.728;2022-12-11T00:28:10;97542.53;;;21.11;34.43
51249;BME280;39642;47.556;18.728;2022-12-11T00:30:41;97541.59;;;21.12;34.48
51249;BME280;39642;47.556;18.728;2022-12-11T00:33:08;97547.69;;;21.13;34.29
51249;BME280;39642;47.556;18.728;2022-12-11T00:35:42;97553.81;;;21.13;34.30
51249;BME280;39642;47.556;18.728;2022-12-11T00:38:09;97556.47;;;21.13;34.22
51249;BME280;39642;47.556;18.728;2022-12-11T00:40:38;97558.28;;;21.13;34.30
51249;BME280;39642;47.556;18.728;2022-12-11T00:43:04;97557.28;;;21.14;34.13
51249;BME280;39642;47.556;18.728;2022-12-11T00:45:30;97552.00;;;21.14;34.28
51249;BME280;39642;47.556;18.728;2022-12-11T00:47:56;97554.66;;;21.14;34.28
51249;BME280;39642;47.556;18.728;2022-12-11T00:50:22;97554.66;;;21.14;33.77
51249;BME280;39642;47.556;18.728;2022-12-11T00:52:47;97560.94;;;21.13;34.19
51249;BME280;39642;47.556;18.728;2022-12-11T00:55:13;97567.06;;;21.13;33.92
51249;BME280;39642;47.556;18.728;2022-12-11T00:57:39;97579.47;;;21.13;34.19
51249;BME280;39642;47.556;18.728;2022-12-11T01:00:05;97578.63;;;21.12;34.02
51249;BME280;39642;47.556;18.728;2022-12-11T01:02:32;97575.13;;;21.12;34.15
51249;BME280;39642;47.556;18.728;2022-12-11T01:04:58;97567.19;;;21.12;34.34
51249;BME280;39642;47.556;18.728;2022-12-11T01:07:24;97559.41;;;21.10;34.01
51249;BME280;39642;47.556;18.728;2022-12-11T01:09:50;97576.94;;;21.11;33.98
51249;BME280;39642;47.556;18.728;2022-12-11T01:12:35;97585.72;;;21.12;34.18
51249;BME280;39642;47.556;18.728;2022-12-11T01:15:01;97570.00;;;21.10;34.04
51249;BME280;39642;47.556;18.728;2022-12-11T01:17:27;97567.34;;;21.10;34.15
51249;BME280;39642;47.556;18.728;2022-12-11T01:19:53;97566.53;;;21.10;34.08
51249;BME280;39642;47.556;18.728;2022-12-11T01:22:19;97574.47;;;21.10;34.20
51249;BME280;39642;47.556;18.728;2022-12-11T01:24:45;97584.06;;;21.11;34.14
51249;BME280;39642;47.556;18.728;2022-12-11T01:27:11;97590.34;;;21.10;34.02
51249;BME280;39642;47.556;18.728;2022-12-11T01:29:37;97594.66;;;21.11;34.20
51249;BME280;39642;47.556;18.728;2022-12-11T01:32:03;97584.06;;;21.11;34.10
51249;BME280;39642;47.556;18.728;2022-12-11T01:34:30;97584.06;;;21.11;34.10
51249;BME280;39642;47.556;18.728;2022-12-11T01:36:56;97588.34;;;21.12;33.86
51249;BME280;39642;47.556;18.728;2022-12-11T01:39:21;97594.50;;;21.12;34.02
51249;BME280;39642;47.556;18.728;2022-12-11T01:41:47;97591.87;;;21.12;34.10
51249;BME280;39642;47.556;18.728;2022-12-11T01:46:39;97597.97;;;21.13;34.14
51249;BME280;39642;47.556;18.728;2022-12-11T01:49:11;97597.97;;;21.13;34.02
51249;BME280;39642;47.556;18.728;2022-12-11T01:51:43;97593.50;;;21.13;33.87
51249;BME280;39642;47.556;18.728;2022-12-11T01:54:12;97597.84;;;21.14;33.85
51249;BME280;39642;47.556;18.728;2022-12-11T01:56:41;97592.56;;;21.14;34.09
51249;BME280;39642;47.556;18.728;2022-12-11T01:59:09;97610.09;;;21.15;33.97
51249;BME280;39642;47.556;18.728;2022-12-11T02:02:00;97606.59;;;21.15;33.86
51249;BME280;39642;47.556;18.728;2022-12-11T02:04:28;97601.31;;;21.15;33.86
51249;BME280;39642;47.556;18.728;2022-12-11T02:06:54;97594.19;;;21.15;34.03
51249;BME280;39642;47.556;18.728;2022-12-11T02:09:26;97582.94;;;21.13;34.01
51249;BME280;39642;47.556;18.728;2022-12-11T02:18:22;97585.56;;;21.13;33.83
51249;BME280;39642;47.556;18.728;2022-12-11T02:20:32;97582.09;;;21.13;33.82
51249;BME280;39642;47.556;18.728;2022-12-11T02:26:17;97587.53;;;21.11;33.95
51249;BME280;39642;47.556;18.728;2022-12-11T02:28:49;97593.66;;;21.12;33.88
51249;BME280;39642;47.556;18.728;2022-12-11T02:34:11;97577.94;;;21.10;33.80
51249;BME280;39642;47.556;18.728;2022-12-11T02:36:42;97572.66;;;21.10;33.74
51249;BME280;39642;47.556;18.728;2022-12-11T02:39:11;97572.66;;;21.10;33.89
51249;BME280;39642;47.556;18.728;2022-12-11T02:41:42;97570.81;;;21.11;33.81
51249;BME280;39642;47.556;18.728;2022-12-11T02:44:10;97562.06;;;21.10;33.61
51249;BME280;39642;47.556;18.728;2022-12-11T02:46:39;97567.34;;;21.10;33.80
51249;BME280;39642;47.556;18.728;2022-12-11T02:49:06;97569.84;;;21.12;33.63
51249;BME280;39642;47.556;18.728;2022-12-11T02:51:38;97568.03;;;21.12;33.95
51249;BME280;39642;47.556;18.728;2022-12-11T02:54:08;97551.47;;;21.10;33.61
51249;BME280;39642;47.556;18.728;2022-12-11T02:56:50;97557.59;;;21.11;33.62
51249;BME280;39642;47.556;18.728;2022-12-11T02:59:20;97559.41;;;21.10;33.45
51249;BME280;39642;47.556;18.728;2022-12-11T03:01:49;97553.31;;;21.10;33.20
51249;BME280;39642;47.556;18.728;2022-12-11T03:04:15;97553.31;;;21.10;33.63
51249;BME280;39642;47.556;18.728;2022-12-11T03:06:44;97552.44;;;21.09;33.08
51249;BME280;39642;47.556;18.728;2022-12-11T03:09:12;97548.00;;;21.10;33.56
51249;BME280;39642;47.556;18.728;2022-12-11T03:11:38;97553.31;;;21.10;33.72
51249;BME280;39642;47.556;18.728;2022-12-11T03:14:05;97541.72;;;21.11;33.57
51249;BME280;39642;47.556;18.728;2022-12-11T03:16:46;97547.84;;;21.11;33.55
51249;BME280;39642;47.556;18.728;2022-12-11T03:21:53;97546.87;;;21.12;33.50
51249;BME280;39642;47.556;18.728;2022-12-11T03:27:07;97548.53;;;21.13;33.49
51249;BME280;39642;47.556;18.728;2022-12-11T03:29:42;97543.22;;;21.13;33.56
51249;BME280;39642;47.556;18.728;2022-12-11T03:32:14;97553.00;;;21.13;33.47
51249;BME280;39642;47.556;18.728;2022-12-11T03:35:01;97545.06;;;21.13;33.44
51249;BME280;39642;47.556;18.728;2022-12-11T03:37:32;97546.87;;;21.12;33.55
51249;BME280;39642;47.556;18.728;2022-12-11T03:40:03;97553.97;;;21.12;33.44
51249;BME280;39642;47.556;18.728;2022-12-11T03:42:32;97550.47;;;21.11;33.43
51249;BME280;39642;47.556;18.728;2022-12-11T03:44:58;97555.78;;;21.11;33.33
51249;BME280;39642;47.556;18.728;2022-12-11T03:47:26;97549.66;;;21.11;33.32
51249;BME280;39642;47.556;18.728;2022-12-11T03:49:54;97559.41;;;21.10;33.54
51249;BME280;39642;47.556;18.728;2022-12-11T03:52:22;97554.94;;;21.11;33.50
51249;BME280;39642;47.556;18.728;2022-12-11T03:54:49;97558.59;;;21.10;33.78
51249;BME280;39642;47.556;18.728;2022-12-11T03:57:18;97561.25;;;21.10;33.54
51249;BME280;39642;47.556;18.728;2022-12-11T03:59:46;97569.19;;;21.10;33.37
51249;BME280;39642;47.556;18.728;2022-12-11T04:02:12;97569.19;;;21.10;33.45
51249;BME280;39642;47.556;18.728;2022-12-11T04:04:39;97574.47;;;21.10;33.28
51249;BME280;39642;47.556;18.728;2022-12-11T04:07:05;97571.97;;;21.08;32.53
51249;BME280;39642;47.556;18.728;2022-12-11T04:09:32;97572.78;;;21.09;32.39
51249;BME280;39642;47.556;18.728;2022-12-11T04:11:58;97568.31;;;21.09;32.91
51249;BME280;39642;47.556;18.728;2022-12-11T04:14:24;97573.62;;;21.09;32.83
51249;BME280;39642;47.556;18.728;2022-12-11T04:17:08;97573.62;;;21.09;32.39
51249;BME280;39642;47.556;18.728;2022-12-11T04:19:34;97572.66;;;21.10;31.86
51249;BME280;39642;47.556;18.728;2022-12-11T04:22:19;97564.72;;;21.10;32.02
51249;BME280;39642;47.556;18.728;2022-12-11T04:25:05;97568.19;;;21.11;31.89
51249;BME280;39642;47.556;18.728;2022-12-11T04:27:32;97566.38;;;21.11;32.81
51249;BME280;39642;47.556;18.728;2022-12-11T04:30:21;97559.56;;;21.09;32.94
51249;BME280;39642;47.556;18.728;2022-12-11T04:32:47;97570.00;;;21.10;32.93
51249;BME280;39642;47.556;18.728;2022-12-11T04:35:14;97571.66;;;21.11;32.88
51249;BME280;39642;47.556;18.728;2022-12-11T04:37:40;97566.38;;;21.11;32.74
51249;BME280;39642;47.556;18.728;2022-12-11T04:40:10;97575.97;;;21.12;32.64
51249;BME280;39642;47.556;18.728;2022-12-11T04:42:36;97566.38;;;21.11;32.82
51249;BME280;39642;47.556;18.728;2022-12-11T04:45:04;97575.00;;;21.13;32.89
51249;BME280;39642;47.556;18.728;2022-12-11T04:47:30;97563.56;;;21.13;32.80
51249;BME280;39642;47.556;18.728;2022-12-11T04:49:55;97563.56;;;21.13;32.85
51249;BME280;39642;47.556;18.728;2022-12-11T04:52:21;97570.69;;;21.12;33.07
51249;BME280;39642;47.556;18.728;2022-12-11T04:54:47;97569.84;;;21.12;32.90
51249;BME280;39642;47.556;18.728;2022-12-11T04:57:13;97585.72;;;21.12;32.75
51249;BME280;39642;47.556;18.728;2022-12-11T04:59:39;97580.59;;;21.10;32.72
51249;BME280;39642;47.556;18.728;2022-12-11T05:02:05;97599.09;;;21.10;33.29
51249;BME280;39642;47.556;18.728;2022-12-11T05:04:32;97608.69;;;21.11;33.01
51249;BME280;39642;47.556;18.728;2022-12-11T05:06:58;97608.88;;;21.10;33.05
51249;BME280;39642;47.556;18.728;2022-12-11T05:09:25;97603.56;;;21.10;32.80
51249;BME280;39642;47.556;18.728;2022-12-11T05:11:52;97613.31;;;21.09;33.04
51249;BME280;39642;47.556;18.728;2022-12-11T05:14:18;97622.09;;;21.10;33.09
51249;BME280;39642;47.556;18.728;2022-12-11T05:16:44;97623.87;;;21.09;32.97
51249;BME280;39642;47.556;18.728;2022-12-11T05:19:10;97614.16;;;21.10;33.43
51249;BME280;39642;47.556;18.728;2022-12-11T05:21:36;97615.13;;;21.09;32.90
51249;BME280;39642;47.556;18.728;2022-12-11T05:24:02;97618.59;;;21.09;33.05
51249;BME280;39642;47.556;18.728;2022-12-11T05:26:28;97616.13;;;21.08;33.12
51249;BME280;39642;47.556;18.728;2022-12-11T05:28:54;97617.78;;;21.09;32.99
51249;BME280;39642;47.556;18.728;2022-12-11T05:31:23;97618.75;;;21.08;32.84
51249;BME280;39642;47.556;18.728;2022-12-11T05:33:50;97624.06;;;21.08;32.84
51249;BME280;39642;47.556;18.728;2022-12-11T05:36:24;97613.47;;;21.08;33.08
51249;BME280;39642;47.556;18.728;2022-12-11T05:38:51;97618.91;;;21.06;32.21
51249;BME280;39642;47.556;18.728;2022-12-11T05:41:20;97624.19;;;21.06;32.26
51249;BME280;39642;47.556;18.728;2022-12-11T05:43:46;97619.72;;;21.07;32.03
51249;BME280;39642;47.556;18.728;2022-12-11T05:46:15;97625.03;;;21.07;31.42
51249;BME280;39642;47.556;18.728;2022-12-11T05:48:42;97620.56;;;21.07;31.25
51249;BME280;39642;47.556;18.728;2022-12-11T05:51:09;97624.06;;;21.08;31.23
51249;BME280;39642;47.556;18.728;2022-12-11T05:53:40;97631.81;;;21.09;31.19
51249;BME280;39642;47.556;18.728;2022-12-11T05:56:09;97634.34;;;21.11;31.20
51249;BME280;39642;47.556;18.728;2022-12-11T05:58:35;97629.87;;;21.11;31.92
51249;BME280;39642;47.556;18.728;2022-12-11T06:01:06;97635.16;;;21.11;31.18
51249;BME280;39642;47.556;18.728;2022-12-11T06:03:32;97642.12;;;21.12;31.13
51249;BME280;39642;47.556;18.728;2022-12-11T06:06:01;97649.09;;;21.13;31.18
51249;BME280;39642;47.556;18.728;2022-12-11T06:08:27;97657.84;;;21.14;31.16
51249;BME280;39642;47.556;18.728;2022-12-11T06:10:53;97663.00;;;21.15;31.16
51249;BME280;39642;47.556;18.728;2022-12-11T06:13:19;97664.00;;;21.14;31.29
51249;BME280;39642;47.556;18.728;2022-12-11T06:15:45;97670.25;;;21.13;32.13
51249;BME280;39642;47.556;18.728;2022-12-11T06:18:11;97664.97;;;21.13;32.60
51249;BME280;39642;47.556;18.728;2022-12-11T06:20:37;97674.59;;;21.14;32.53
51249;BME280;39642;47.556;18.728;2022-12-11T06:23:03;97675.56;;;21.13;32.23
51249;BME280;39642;47.556;18.728;2022-12-11T06:25:30;97662.19;;;21.15;32.18
51249;BME280;39642;47.556;18.728;2022-12-11T06:27:56;97668.44;;;21.14;32.18
51249;BME280;39642;47.556;18.728;2022-12-11T06:30:22;97685.16;;;21.14;32.40
51249;BME280;39642;47.556;18.728;2022-12-11T06:32:48;97686.13;;;21.13;32.45
51249;BME280;39642;47.556;18.728;2022-12-11T06:35:14;97700.34;;;21.12;32.18
51249;BME280;39642;47.556;18.728;2022-12-11T06:37:40;97711.91;;;21.11;32.40
51249;BME280;39642;47.556;18.728;2022-12-11T06:40:07;97719.03;;;21.11;32.45
51249;BME280;39642;47.556;18.728;2022-12-11T06:42:34;97720.66;;;21.12;32.59
51249;BME280;39642;47.556;18.728;2022-12-11T06:45:00;97725.13;;;21.11;32.66
51249;BME280;39642;47.556;18.728;2022-12-11T06:47:26;97724.31;;;21.11;32.68
51249;BME280;39642;47.556;18.728;2022-12-11T06:49:53;97711.06;;;21.11;32.33
51249;BME280;39642;47.556;18.728;2022-12-11T06:52:23;97712.91;;;21.10;32.70
51249;BME280;39642;47.556;18.728;2022-12-11T06:54:49;97724.44;;;21.09;32.79
51249;BME280;39642;47.556;18.728;2022-12-11T06:57:16;97724.44;;;21.09;32.57
51249;BME280;39642;47.556;18.728;2022-12-11T06:59:42;97737.66;;;21.09;32.56
51249;BME280;39642;47.556;18.728;2022-12-11T07:02:12;97726.25;;;21.09;32.48
51249;BME280;39642;47.556;18.728;2022-12-11T07:04:39;97732.38;;;21.09;32.94
51249;BME280;39642;47.556;18.728;2022-12-11T07:07:06;97739.50;;;21.09;32.82
51249;BME280;39642;47.556;18.728;2022-12-11T07:09:32;97739.50;;;21.09;32.80
51249;BME280;39642;47.556;18.728;2022-12-11T07:11:57;97737.84;;;21.08;32.64
51249;BME280;39642;47.556;18.728;2022-12-11T07:14:23;97748.44;;;21.08;32.06
51249;BME280;39642;47.556;18.728;2022-12-11T07:16:49;97753.84;;;21.06;31.12
51249;BME280;39642;47.556;18.728;2022-12-11T07:19:15;97747.56;;;21.07;30.87
51249;BME280;39642;47.556;18.728;2022-12-11T07:21:41;97762.47;;;21.08;30.78
51249;BME280;39642;47.556;18.728;2022-12-11T07:24:07;97749.25;;;21.08;30.73
51249;BME280;39642;47.556;18.728;2022-12-11T07:26:33;97767.63;;;21.10;30.81
51249;BME280;39642;47.556;18.728;2022-12-11T07:28:59;97757.72;;;21.12;30.65
51249;BME280;39642;47.556;18.728;2022-12-11T07:31:27;97764.69;;;21.13;30.64
51249;BME280;39642;47.556;18.728;2022-12-11T07:33:59;97772.50;;;21.14;30.92
51249;BME280;39642;47.556;18.728;2022-12-11T07:36:25;97782.94;;;21.16;30.93
51249;BME280;39642;47.556;18.728;2022-12-11T07:38:52;97774.97;;;21.16;30.68
51249;BME280;39642;47.556;18.728;2022-12-11T07:41:18;97783.63;;;21.18;30.69
51249;BME280;39642;47.556;18.728;2022-12-11T07:43:44;97790.59;;;21.19;30.67
51249;BME280;39642;47.556;18.728;2022-12-11T07:46:12;97790.44;;;21.20;30.65
51249;BME280;39642;47.556;18.728;2022-12-11T07:48:40;97790.31;;;21.22;30.55
51249;BME280;39642;47.556;18.728;2022-12-11T07:51:15;97793.78;;;21.23;30.52
51249;BME280;39642;47.556;18.728;2022-12-11T07:53:44;97798.13;;;21.24;30.53
51249;BME280;39642;47.556;18.728;2022-12-11T07:56:11;97794.47;;;21.25;30.67
51249;BME280;39642;47.556;18.728;2022-12-11T07:58:37;97805.75;;;21.27;30.47
51249;BME280;39642;47.556;18.728;2022-12-11T08:01:10;97803.09;;;21.27;30.46
51249;BME280;39642;47.556;18.728;2022-12-11T08:03:38;97802.12;;;21.28;30.45
51249;BME280;39642;47.556;18.728;2022-12-11T08:06:05;97804.75;;;21.28;30.44
51249;BME280;39642;47.556;18.728;2022-12-11T08:08:31;97815.22;;;21.29;30.31
51249;BME280;39642;47.556;18.728;2022-12-11T08:11:02;97815.09;;;21.31;30.35
51249;BME280;39642;47.556;18.728;2022-12-11T08:13:28;97822.19;;;21.30;30.22
51249;BME280;39642;47.556;18.728;2022-12-11T08:15:53;97826.50;;;21.31;30.18
51249;BME280;39642;47.556;18.728;2022-12-11T08:18:19;97834.44;;;21.31;30.18
51249;BME280;39642;47.556;18.728;2022-12-11T08:20:45;97839.75;;;21.31;30.28
51249;BME280;39642;47.556;18.728;2022-12-11T08:23:11;97847.69;;;21.31;30.23
51249;BME280;39642;47.556;18.728;2022-12-11T08:25:37;97850.31;;;21.31;30.47
51249;BME280;39642;47.556;18.728;2022-12-11T08:28:03;97872.34;;;21.32;30.92
51249;BME280;39642;47.556;18.728;2022-12-11T08:30:29;97872.34;;;21.32;31.20
51249;BME280;39642;47.556;18.728;2022-12-11T08:32:55;97869.69;;;21.32;31.86
51249;BME280;39642;47.556;18.728;2022-12-11T08:35:21;97877.62;;;21.32;30.90
51249;BME280;39642;47.556;18.728;2022-12-11T08:37:46;97887.38;;;21.31;30.55
51249;BME280;39642;47.556;18.728;2022-12-11T08:40:12;97894.50;;;21.31;30.78
51249;BME280;39642;47.556;18.728;2022-12-11T08:42:38;97897.16;;;21.31;30.84
51249;BME280;39642;47.556;18.728;2022-12-11T08:45:05;97894.50;;;21.31;30.68
51249;BME280;39642;47.556;18.728;2022-12-11T08:47:31;97902.44;;;21.31;30.61
51249;BME280;39642;47.556;18.728;2022-12-11T08:49:57;97894.62;;;21.29;30.62
51249;BME280;39642;47.556;18.728;2022-12-11T08:52:22;97899.09;;;21.29;30.73
51249;BME280;39642;47.556;18.728;2022-12-11T08:54:48;97896.44;;;21.29;30.78
51249;BME280;39642;47.556;18.728;2022-12-11T08:57:14;97904.53;;;21.27;31.32
51249;BME280;39642;47.556;18.728;2022-12-11T08:59:40;97899.38;;;21.26;30.81
51249;BME280;39642;47.556;18.728;2022-12-11T09:02:08;97900.34;;;21.25;30.80
51249;BME280;39642;47.556;18.728;2022-12-11T09:04:35;97899.53;;;21.24;30.86
51249;BME280;39642;47.556;18.728;2022-12-11T09:07:01;97897.00;;;21.23;30.67
51249;BME280;39642;47.556;18.728;2022-12-11T09:09:27;97903.28;;;21.21;30.60
51249;BME280;39642;47.556;18.728;2022-12-11T09:11:52;97905.94;;;21.21;30.61
51249;BME280;39642;47.556;18.728;2022-12-11T09:14:18;97902.47;;;21.21;30.45
51249;BME280;39642;47.556;18.728;2022-12-11T09:16:44;97907.59;;;21.23;30.36
51249;BME280;39642;47.556;18.728;2022-12-11T09:19:12;97919.87;;;21.24;30.31
51249;BME280;39642;47.556;18.728;2022-12-11T09:21:41;97913.59;;;21.25;30.33
51249;BME280;39642;47.556;18.728;2022-12-11T09:24:09;97917.06;;;21.25;30.24
51249;BME280;39642;47.556;18.728;2022-12-11T09:26:35;97918.75;;;21.26;30.23
51249;BME280;39642;47.556;18.728;2022-12-11T09:29:03;97916.94;;;21.27;30.21
51249;BME280;39642;47.556;18.728;2022-12-11T09:31:31;97923.75;;;21.29;30.28
51249;BME280;39642;47.556;18.728;2022-12-11T09:34:00;97927.37;;;21.28;30.16
51249;BME280;39642;47.556;18.728;2022-12-11T09:36:27;97936.03;;;21.30;30.26
51249;BME280;39642;47.556;18.728;2022-12-11T09:38:53;97942.97;;;21.31;30.29
51249;BME280;39642;47.556;18.728;2022-12-11T09:46:25;97954.28;;;21.33;30.40
51249;BME280;39642;47.556;18.728;2022-12-11T09:48:52;97956.78;;;21.35;30.08
51249;BME280;39642;47.556;18.728;2022-12-11T09:53:51;97948.56;;;21.38;30.03
51249;BME280;39642;47.556;18.728;2022-12-11T09:56:32;97945.91;;;21.38;29.96
51249;BME280;39642;47.556;18.728;2022-12-11T10:02:02;97925.41;;;21.40;29.99
51249;BME280;39642;47.556;18.728;2022-12-11T10:07:35;97922.69;;;21.41;29.96
51249;BME280;39642;47.556;18.728;2022-12-11T10:18:20;97928.94;;;21.40;30.00
51249;BME280;39642;47.556;18.728;2022-12-11T10:20:50;97919.28;;;21.39;30.03
51249;BME280;39642;47.556;18.728;2022-12-11T10:23:27;97906.06;;;21.39;29.97
51249;BME280;39642;47.556;18.728;2022-12-11T10:26:00;97916.66;;;21.39;29.97
51249;BME280;39642;47.556;18.728;2022-12-11T10:28:27;97906.88;;;21.40;30.01
51249;BME280;39642;47.556;18.728;2022-12-11T10:36:06;97921.25;;;21.37;30.00
51249;BME280;39642;47.556;18.728;2022-12-11T10:38:38;97920.41;;;21.37;29.95
51249;BME280;39642;47.556;18.728;2022-12-11T10:41:44;97933.66;;;21.37;30.02
51249;BME280;39642;47.556;18.728;2022-12-11T10:46:59;97948.84;;;21.35;30.16
51249;BME280;39642;47.556;18.728;2022-12-11T10:49:28;97952.31;;;21.35;30.04
51249;BME280;39642;47.556;18.728;2022-12-11T10:51:56;97947.97;;;21.34;30.14
51249;BME280;39642;47.556;18.728;2022-12-11T10:54:38;97948.16;;;21.33;30.02
51249;BME280;39642;47.556;18.728;2022-12-11T10:57:06;97952.44;;;21.34;30.07
51249;BME280;39642;47.556;18.728;2022-12-11T11:02:29;97959.44;;;21.35;30.09
51249;BME280;39642;47.556;18.728;2022-12-11T11:04:58;97962.09;;;21.35;29.96
51249;BME280;39642;47.556;18.728;2022-12-11T11:07:29;97950.50;;;21.36;29.92
51249;BME280;39642;47.556;18.728;2022-12-11T11:12:43;97941.44;;;21.38;29.92
51249;BME280;39642;47.556;18.728;2022-12-11T11:15:13;97946.59;;;21.40;29.85
51249;BME280;39642;47.556;18.728;2022-12-11T11:17:46;97946.50;;;21.41;29.81
51249;BME280;39642;47.556;18.728;2022-12-11T11:20:15;97955.16;;;21.44;29.81
51249;BME280;39642;47.556;18.728;2022-12-11T11:22:52;97949.69;;;21.45;29.86
51249;BME280;39642;47.556;18.728;2022-12-11T11:25:21;97944.25;;;21.47;29.73
51249;BME280;39642;47.556;18.728;2022-12-11T11:27:51;97931.72;;;21.49;29.75
51249;BME280;39642;47.556;18.728;2022-12-11T11:30:26;97932.41;;;21.51;29.70
51249;BME280;39642;47.556;18.728;2022-12-11T11:32:57;97937.56;;;21.52;29.69
51249;BME280;39642;47.556;18.728;2022-12-11T11:35:30;97945.38;;;21.54;29.65
51249;BME280;39642;47.556;18.728;2022-12-11T11:38:17;97955.81;;;21.55;29.69
51249;BME280;39642;47.556;18.728;2022-12-11T11:43:46;97943.28;;;21.57;29.61
51249;BME280;39642;47.556;18.728;2022-12-11T11:54:00;97939.66;;;21.58;29.51
51249;BME280;39642;47.556;18.728;2022-12-11T11:56:35;97956.38;;;21.59;29.44
51249;BME280;39642;47.556;18.728;2022-12-11T11:59:10;97957.22;;;21.59;29.51
51249;BME280;39642;47.556;18.728;2022-12-11T12:01:40;97960.84;;;21.58;29.52
51249;BME280;39642;47.556;18.728;2022-12-11T12:04:07;97961.81;;;21.57;29.51
51249;BME280;39642;47.556;18.728;2022-12-11T12:19:58;97968.38;;;21.53;29.63
51249;BME280;39642;47.556;18.728;2022-12-11T12:25:22;97959.59;;;21.53;29.70
51249;BME280;39642;47.556;18.728;2022-12-11T12:27:57;97977.28;;;21.52;29.69
51249;BME280;39642;47.556;18.728;2022-12-11T12:30:27;97973.94;;;21.50;29.77
51249;BME280;39642;47.556;18.728;2022-12-11T12:36:25;97972.41;;;21.48;29.72
51249;BME280;39642;47.556;18.728;2022-12-11T12:38:58;97963.63;;;21.47;29.74
51249;BME280;39642;47.556;18.728;2022-12-11T12:46:48;97974.50;;;21.44;29.77
51249;BME280;39642;47.556;18.728;2022-12-11T12:49:24;97991.22;;;21.45;29.73
51249;BME280;39642;47.556;18.728;2022-12-11T12:51:52;97994.88;;;21.44;29.67
51249;BME280;39642;47.556;18.728;2022-12-11T12:54:19;97989.56;;;21.44;29.77
51249;BME280;39642;47.556;18.728;2022-12-11T12:56:47;97989.56;;;21.44;29.69
51249;BME280;39642;47.556;18.728;2022-12-11T12:59:22;97990.41;;;21.44;29.69
51249;BME280;39642;47.556;18.728;2022-12-11T13:01:50;97989.41;;;21.45;29.63
51249;BME280;39642;47.556;18.728;2022-12-11T13:04:43;98005.47;;;21.44;29.59
51249;BME280;39642;47.556;18.728;2022-12-11T13:07:21;98003.63;;;21.44;29.54
51249;BME280;39642;47.556;18.728;2022-12-11T13:09:57;98008.94;;;21.44;29.44
51249;BME280;39642;47.556;18.728;2022-12-11T13:12:38;98022.16;;;21.44;29.66
51249;BME280;39642;47.556;18.728;2022-12-11T13:15:33;98023.00;;;21.45;29.52
51249;BME280;39642;47.556;18.728;2022-12-11T13:18:05;98032.75;;;21.44;29.51
51249;BME280;39642;47.556;18.728;2022-12-11T13:20:48;98030.12;;;21.44;29.57
51249;BME280;39642;47.556;18.728;2022-12-11T13:23:18;98038.06;;;21.44;29.56
51249;BME280;39642;47.556;18.728;2022-12-11T13:25:53;98042.53;;;21.44;29.57
51249;BME280;39642;47.556;18.728;2022-12-11T13:28:26;98048.78;;;21.42;29.85
51249;BME280;39642;47.556;18.728;2022-12-11T13:33:25;98070.94;;;21.41;29.67
51249;BME280;39642;47.556;18.728;2022-12-11T13:38:52;98066.59;;;21.40;29.96
51249;BME280;39642;47.556;18.728;2022-12-11T13:41:19;98065.87;;;21.38;29.89
51249;BME280;39642;47.556;18.728;2022-12-11T13:43:47;98073.00;;;21.38;29.89
51249;BME280;39642;47.556;18.728;2022-12-11T13:46:19;98072.16;;;21.37;30.02
51249;BME280;39642;47.556;18.728;2022-12-11T13:49:07;98066.03;;;21.37;29.86
51249;BME280;39642;47.556;18.728;2022-12-11T13:51:51;98069.62;;;21.36;29.90
51249;BME280;39642;47.556;18.728;2022-12-11T13:54:18;98075.91;;;21.35;29.87
51249;BME280;39642;47.556;18.728;2022-12-11T13:57:02;98079.53;;;21.34;29.84
51249;BME280;39642;47.556;18.728;2022-12-11T13:59:34;98082.19;;;21.34;29.96
51249;BME280;39642;47.556;18.728;2022-12-11T14:02:08;98080.50;;;21.33;30.34
51249;BME280;39642;47.556;18.728;2022-12-11T14:04:37;98093.88;;;21.31;30.17
51249;BME280;39642;47.556;18.728;2022-12-11T14:07:06;98098.34;;;21.31;30.21
51249;BME280;39642;47.556;18.728;2022-12-11T14:09:37;98105.28;;;21.32;29.91
51249;BME280;39642;47.556;18.728;2022-12-11T14:12:05;98106.28;;;21.31;29.81
51249;BME280;39642;47.556;18.728;2022-12-11T14:14:40;98110.75;;;21.30;30.23
51249;BME280;39642;47.556;18.728;2022-12-11T14:17:13;98105.44;;;21.30;30.33
51249;BME280;39642;47.556;18.728;2022-12-11T14:19:45;98122.16;;;21.31;30.56
51249;BME280;39642;47.556;18.728;2022-12-11T14:22:18;98116.88;;;21.31;30.58
51249;BME280;39642;47.556;18.728;2022-12-11T14:24:59;98123.69;;;21.33;30.13
51249;BME280;39642;47.556;18.728;2022-12-11T14:27:27;98135.28;;;21.32;30.33
51249;BME280;39642;47.556;18.728;2022-12-11T14:29:54;98133.47;;;21.33;29.93
51249;BME280;39642;47.556;18.728;2022-12-11T14:32:41;98136.94;;;21.33;30.04
51249;BME280;39642;47.556;18.728;2022-12-11T14:35:22;98141.25;;;21.34;29.80
51249;BME280;39642;47.556;18.728;2022-12-11T14:37:50;98144.75;;;21.35;29.85